createdAt,value
2019-04-25T00:00:46.500Z,73.00
2019-04-25T00:01:28.661Z,73.00
2019-04-25T00:02:13.575Z,73.10
2019-04-25T00:02:48.084Z,73.20
2019-04-25T00:03:29.750Z,73.30
2019-04-25T00:04:04.733Z,73.40
2019-04-25T00:04:39.312Z,73.40
2019-04-25T00:05:14.774Z,73.50
2019-04-25T00:05:49.291Z,73.60
2019-04-25T00:06:25.673Z,73.60
2019-04-25T00:07:02.114Z,73.60
2019-04-25T00:07:37.170Z,73.50
2019-04-25T00:08:11.928Z,73.40
2019-04-25T00:08:47.294Z,73.40
2019-04-25T00:09:23.504Z,73.40
2019-04-25T00:09:58.332Z,73.30
2019-04-25T00:10:32.983Z,73.40
2019-04-25T00:11:07.862Z,73.40
2019-04-25T00:11:45.247Z,73.50
2019-04-25T00:12:19.219Z,73.60
2019-04-25T00:12:53.822Z,73.60
2019-04-25T00:13:28.769Z,73.70
2019-04-25T00:14:03.326Z,73.70
2019-04-25T00:14:38.073Z,73.70
2019-04-25T00:15:13.179Z,73.60
2019-04-25T00:15:48.108Z,73.70
2019-04-25T00:16:23.841Z,73.80
2019-04-25T00:16:58.403Z,73.80
2019-04-25T00:17:32.998Z,73.70
2019-04-25T00:18:07.523Z,73.70
2019-04-25T00:18:43.062Z,73.80
2019-04-25T00:19:18.027Z,73.80
2019-04-25T00:19:52.871Z,73.80
2019-04-25T00:20:29.254Z,73.90
2019-04-25T00:21:05.456Z,74.70
2019-04-25T00:21:44.576Z,74.10
2019-04-25T00:22:26.453Z,74.20
2019-04-25T00:23:02.594Z,74.20
2019-04-25T00:23:37.283Z,74.40
2019-04-25T00:24:16.378Z,74.40
2019-04-25T00:24:53.001Z,74.50
2019-04-25T00:25:29.224Z,74.70
2019-04-25T00:26:07.889Z,74.90
2019-04-25T00:26:45.145Z,74.90
2019-04-25T00:27:19.794Z,75.00
2019-04-25T00:27:54.375Z,74.90
2019-04-25T00:28:28.963Z,75.00
2019-04-25T00:29:04.035Z,75.00
2019-04-25T00:29:38.644Z,75.00
2019-04-25T00:30:13.442Z,74.90
2019-04-25T00:30:48.104Z,75.00
2019-04-25T00:31:22.697Z,75.10
2019-04-25T00:31:57.292Z,75.20
2019-04-25T00:32:31.966Z,75.40
2019-04-25T00:33:06.501Z,75.40
2019-04-25T00:33:43.350Z,75.30
2019-04-25T00:34:17.214Z,75.30
2019-04-25T00:34:51.881Z,75.30
2019-04-25T00:35:27.210Z,75.30
2019-04-25T00:36:03.810Z,75.30
2019-04-25T00:36:39.094Z,75.30
2019-04-25T00:37:13.989Z,75.20
2019-04-25T00:37:48.629Z,75.20
2019-04-25T00:38:23.183Z,75.10
2019-04-25T00:38:57.777Z,75.10
2019-04-25T00:39:32.362Z,75.10
2019-04-25T00:40:07.821Z,75.10
2019-04-25T00:40:43.528Z,75.00
2019-04-25T00:41:18.474Z,75.10
2019-04-25T00:41:53.715Z,75.00
2019-04-25T00:42:28.241Z,74.90
2019-04-25T00:43:02.827Z,75.00
2019-04-25T00:43:37.430Z,75.00
2019-04-25T00:44:12.172Z,75.00
2019-04-25T00:44:47.375Z,75.00
2019-04-25T00:45:22.307Z,75.00
2019-04-25T00:45:56.976Z,75.10
2019-04-25T00:46:32.235Z,75.10
2019-04-25T00:47:06.912Z,75.00
2019-04-25T00:47:43.352Z,75.10
2019-04-25T00:48:17.785Z,75.00
2019-04-25T00:48:52.727Z,75.00
2019-04-25T00:49:27.334Z,75.10
2019-04-25T00:50:02.390Z,75.10
2019-04-25T00:50:37.048Z,75.20
2019-04-25T00:51:11.849Z,75.40
2019-04-25T00:51:46.449Z,75.40
2019-04-25T00:52:21.152Z,75.40
2019-04-25T00:52:57.124Z,75.40
2019-04-25T00:53:32.395Z,75.40
2019-04-25T00:54:07.005Z,75.40
2019-04-25T00:54:43.051Z,75.50
2019-04-25T00:55:26.903Z,75.50
2019-04-25T00:55:53.943Z,75.60
2019-04-25T00:56:28.515Z,75.40
2019-04-25T00:57:03.095Z,75.60
2019-04-25T00:57:38.162Z,75.60
2019-04-25T00:58:26.139Z,75.60
2019-04-25T00:59:02.363Z,75.60
2019-04-25T00:59:54.129Z,76.40
2019-04-25T01:00:49.048Z,75.70
2019-04-25T01:01:37.052Z,75.80
2019-04-25T01:02:15.848Z,75.90
2019-04-25T01:02:55.463Z,75.90
2019-04-25T01:03:34.604Z,75.90
2019-04-25T01:04:09.121Z,75.90
2019-04-25T01:04:43.938Z,76.00
2019-04-25T01:05:19.131Z,75.90
2019-04-25T01:05:54.636Z,75.90
2019-04-25T01:06:29.267Z,75.80
2019-04-25T01:07:03.864Z,75.80
2019-04-25T01:07:38.376Z,75.80
2019-04-25T01:08:13.024Z,75.90
2019-04-25T01:08:47.798Z,75.90
2019-04-25T01:09:22.904Z,75.90
2019-04-25T01:09:57.495Z,76.00
2019-04-25T01:10:32.018Z,76.00
2019-04-25T01:11:06.667Z,76.00
2019-04-25T01:11:42.415Z,76.00
2019-04-25T01:12:18.029Z,76.10
2019-04-25T01:12:53.212Z,76.00
2019-04-25T01:13:27.886Z,76.00
2019-04-25T01:14:02.400Z,76.10
2019-04-25T01:14:36.978Z,76.10
2019-04-25T01:15:12.743Z,76.10
2019-04-25T01:15:47.323Z,76.00
2019-04-25T01:16:22.055Z,76.00
2019-04-25T01:16:56.613Z,76.00
2019-04-25T01:17:31.633Z,76.00
2019-04-25T01:18:06.713Z,76.70
2019-04-25T01:18:41.517Z,76.00
2019-04-25T01:19:16.028Z,76.00
2019-04-25T01:19:51.014Z,76.00
2019-04-25T01:20:25.599Z,76.10
2019-04-25T01:21:00.122Z,76.10
2019-04-25T01:21:34.711Z,76.10
2019-04-25T01:22:09.391Z,76.10
2019-04-25T01:22:44.129Z,76.00
2019-04-25T01:23:18.674Z,75.90
2019-04-25T01:23:54.498Z,75.90
2019-04-25T01:24:29.139Z,76.00
2019-04-25T01:25:05.359Z,76.10
2019-04-25T01:25:42.491Z,76.20
2019-04-25T01:26:16.290Z,76.30
2019-04-25T01:26:51.645Z,76.30
2019-04-25T01:27:26.249Z,76.40
2019-04-25T01:28:00.786Z,76.50
2019-04-25T01:28:35.533Z,76.60
2019-04-25T01:29:10.414Z,76.80
2019-04-25T01:29:46.231Z,76.70
2019-04-25T01:30:23.939Z,76.70
2019-04-25T01:30:58.834Z,76.70
2019-04-25T01:31:33.719Z,76.60
2019-04-25T01:32:09.783Z,76.50
2019-04-25T01:32:44.895Z,76.40
2019-04-25T01:33:19.543Z,76.40
2019-04-25T01:33:54.665Z,76.40
2019-04-25T01:34:34.472Z,77.10
2019-04-25T01:35:17.109Z,76.40
2019-04-25T01:35:59.294Z,76.40
2019-04-25T01:36:44.380Z,76.30
2019-04-25T01:37:20.582Z,76.40
2019-04-25T01:38:13.918Z,76.30
2019-04-25T01:38:53.387Z,76.30
2019-04-25T01:39:34.198Z,76.30
2019-04-25T01:40:25.339Z,76.40
2019-04-25T01:41:04.141Z,76.30
2019-04-25T01:41:47.581Z,76.40
2019-04-25T01:42:38.541Z,76.40
2019-04-25T01:43:26.393Z,76.40
2019-04-25T01:44:05.389Z,76.50
2019-04-25T01:44:41.654Z,76.50
2019-04-25T01:45:16.681Z,76.50
2019-04-25T01:45:51.811Z,76.50
2019-04-25T01:46:26.368Z,76.60
2019-04-25T01:47:01.124Z,76.60
2019-04-25T01:47:35.787Z,76.60
2019-04-25T01:48:10.445Z,76.60
2019-04-25T01:48:45.039Z,76.60
2019-04-25T01:49:19.724Z,76.60
2019-04-25T01:49:54.611Z,76.60
2019-04-25T01:50:30.081Z,76.50
2019-04-25T01:51:04.689Z,76.40
2019-04-25T01:51:39.340Z,76.50
2019-04-25T01:52:13.997Z,76.50
2019-04-25T01:52:48.959Z,76.50
2019-04-25T01:53:24.128Z,76.50
2019-04-25T01:53:58.810Z,76.60
2019-04-25T01:54:33.962Z,76.60
2019-04-25T01:55:08.934Z,76.60
2019-04-25T01:55:53.839Z,76.50
2019-04-25T01:56:19.924Z,76.60
2019-04-25T01:56:55.275Z,76.70
2019-04-25T01:57:30.711Z,76.80
2019-04-25T01:58:05.224Z,76.80
2019-04-25T01:58:40.877Z,76.90
2019-04-25T01:59:15.473Z,76.90
2019-04-25T01:59:51.355Z,76.90
2019-04-25T02:00:33.586Z,76.80
2019-04-25T02:01:08.176Z,76.80
2019-04-25T02:01:44.018Z,76.80
2019-04-25T02:02:20.383Z,76.80
2019-04-25T02:02:55.849Z,76.80
2019-04-25T02:03:31.127Z,76.80
2019-04-25T02:04:05.710Z,76.80
2019-04-25T02:04:40.219Z,76.80
2019-04-25T02:05:14.871Z,76.80
2019-04-25T02:05:50.661Z,77.50
2019-04-25T02:06:25.911Z,76.80
2019-04-25T02:07:00.554Z,76.80
2019-04-25T02:07:35.050Z,76.80
2019-04-25T02:08:09.608Z,76.70
2019-04-25T02:08:44.217Z,76.60
2019-04-25T02:09:19.157Z,76.70
2019-04-25T02:09:54.825Z,76.80
2019-04-25T02:10:29.726Z,76.70
2019-04-25T02:11:06.106Z,76.80
2019-04-25T02:11:45.276Z,76.80
2019-04-25T02:12:30.271Z,76.80
2019-04-25T02:13:06.488Z,76.70
2019-04-25T02:13:41.002Z,76.80
2019-04-25T02:14:15.536Z,76.80
2019-04-25T02:14:50.119Z,76.80
2019-04-25T02:15:26.347Z,76.80
2019-04-25T02:16:00.941Z,76.70
2019-04-25T02:16:35.522Z,76.70
2019-04-25T02:17:10.102Z,76.70
2019-04-25T02:17:44.613Z,77.00
2019-04-25T02:18:19.185Z,77.10
2019-04-25T02:18:55.112Z,77.10
2019-04-25T02:19:29.986Z,77.00
2019-04-25T02:20:06.227Z,77.10
2019-04-25T02:20:40.892Z,77.10
2019-04-25T02:21:15.404Z,77.00
2019-04-25T02:21:50.129Z,77.10
2019-04-25T02:22:24.636Z,77.10
2019-04-25T02:22:59.980Z,77.20
2019-04-25T02:23:34.960Z,77.30
2019-04-25T02:24:09.467Z,77.30
2019-04-25T02:24:44.353Z,77.30
2019-04-25T02:25:18.935Z,77.40
2019-04-25T02:26:06.103Z,77.40
2019-04-25T02:26:29.913Z,77.40
2019-04-25T02:27:04.753Z,77.40
2019-04-25T02:27:39.437Z,77.40
2019-04-25T02:28:15.856Z,77.30
2019-04-25T02:28:50.607Z,77.40
2019-04-25T02:29:25.221Z,77.30
2019-04-25T02:30:00.945Z,77.50
2019-04-25T02:30:35.854Z,77.60
2019-04-25T02:31:10.373Z,77.70
2019-04-25T02:31:45.248Z,77.50
2019-04-25T02:32:19.855Z,77.60
2019-04-25T02:32:58.382Z,77.70
2019-04-25T02:33:31.018Z,77.80
2019-04-25T02:34:08.374Z,77.80
2019-04-25T02:34:41.913Z,77.80
2019-04-25T02:35:16.676Z,77.90
2019-04-25T02:35:51.401Z,77.90
2019-04-25T02:36:26.087Z,77.90
2019-04-25T02:37:03.199Z,77.80
2019-04-25T02:37:36.888Z,77.90
2019-04-25T02:38:11.761Z,78.00
2019-04-25T02:38:46.350Z,78.00
2019-04-25T02:39:24.424Z,78.10
2019-04-25T02:40:00.519Z,78.10
2019-04-25T02:40:35.078Z,78.00
2019-04-25T02:41:09.683Z,78.10
2019-04-25T02:41:44.585Z,78.00
2019-04-25T02:42:19.239Z,78.10
2019-04-25T02:42:55.797Z,78.10
2019-04-25T02:43:30.320Z,78.20
2019-04-25T02:44:09.455Z,78.20
2019-04-25T02:44:44.535Z,78.20
2019-04-25T02:45:24.518Z,78.30
2019-04-25T02:46:02.216Z,78.30
2019-04-25T02:46:41.299Z,78.50
2019-04-25T02:47:17.578Z,78.70
2019-04-25T02:47:59.704Z,78.80
2019-04-25T02:48:44.140Z,78.90
2019-04-25T02:49:34.839Z,78.90
2019-04-25T02:50:17.043Z,78.80
2019-04-25T02:51:04.634Z,79.00
2019-04-25T02:51:45.094Z,79.10
2019-04-25T02:52:21.398Z,79.20
2019-04-25T02:52:58.631Z,79.10
2019-04-25T02:53:37.345Z,79.30
2019-04-25T02:54:13.826Z,79.50
2019-04-25T02:54:48.041Z,79.50
2019-04-25T02:55:34.092Z,79.50
2019-04-25T02:55:59.730Z,79.50
2019-04-25T02:56:38.904Z,79.40
2019-04-25T02:57:10.537Z,79.20
2019-04-25T02:57:45.394Z,79.00
2019-04-25T02:58:19.920Z,79.00
2019-04-25T02:58:54.521Z,78.90
2019-04-25T02:59:30.128Z,78.90
2019-04-25T03:00:08.835Z,79.00
2019-04-25T03:00:55.030Z,79.10
2019-04-25T03:01:23.523Z,79.10
2019-04-25T03:01:57.196Z,79.20
2019-04-25T03:02:34.298Z,79.10
2019-04-25T03:03:08.731Z,79.20
2019-04-25T03:03:44.999Z,79.10
2019-04-25T03:04:19.959Z,79.00
2019-04-25T03:04:54.812Z,79.00
2019-04-25T03:05:29.496Z,79.10
2019-04-25T03:06:07.583Z,79.10
2019-04-25T03:06:40.633Z,79.10
2019-04-25T03:07:17.472Z,79.20
2019-04-25T03:07:51.581Z,79.30
2019-04-25T03:08:26.219Z,79.30
2019-04-25T03:09:01.979Z,79.30
2019-04-25T03:09:36.599Z,79.30
2019-04-25T03:10:11.695Z,79.30
2019-04-25T03:10:47.213Z,79.20
2019-04-25T03:11:24.288Z,79.10
2019-04-25T03:11:58.756Z,79.00
2019-04-25T03:12:36.622Z,78.80
2019-04-25T03:13:11.989Z,79.50
2019-04-25T03:13:46.807Z,78.90
2019-04-25T03:14:21.383Z,79.00
2019-04-25T03:14:56.067Z,79.00
2019-04-25T03:15:30.614Z,79.00
2019-04-25T03:16:08.867Z,79.20
2019-04-25T03:16:41.797Z,79.10
2019-04-25T03:17:16.324Z,79.20
2019-04-25T03:17:51.166Z,79.10
2019-04-25T03:18:27.453Z,79.00
2019-04-25T03:19:19.847Z,79.00
2019-04-25T03:19:59.888Z,79.00
2019-04-25T03:20:39.127Z,79.00
2019-04-25T03:21:17.541Z,79.10
2019-04-25T03:21:55.004Z,79.20
2019-04-25T03:22:31.414Z,79.20
2019-04-25T03:23:10.826Z,79.20
2019-04-25T03:23:47.658Z,79.30
2019-04-25T03:24:24.976Z,79.40
2019-04-25T03:24:59.939Z,79.40
2019-04-25T03:25:34.857Z,79.40
2019-04-25T03:26:09.508Z,79.50
2019-04-25T03:26:44.362Z,80.10
2019-04-25T03:27:18.937Z,79.50
2019-04-25T03:27:54.091Z,79.50
2019-04-25T03:28:29.481Z,79.40
2019-04-25T03:29:05.258Z,79.20
2019-04-25T03:29:40.710Z,79.10
2019-04-25T03:30:17.839Z,79.00
2019-04-25T03:30:54.962Z,79.00
2019-04-25T03:31:28.170Z,78.90
2019-04-25T03:32:08.775Z,79.00
2019-04-25T03:32:39.013Z,78.90
2019-04-25T03:33:19.090Z,79.00
2019-04-25T03:33:49.894Z,78.90
2019-04-25T03:34:25.500Z,78.90
2019-04-25T03:35:01.177Z,79.00
2019-04-25T03:35:35.849Z,79.00
2019-04-25T03:36:10.472Z,78.90
2019-04-25T03:36:44.977Z,78.90
2019-04-25T03:37:19.536Z,78.90
2019-04-25T03:37:54.497Z,78.80
2019-04-25T03:38:29.092Z,78.80
2019-04-25T03:39:05.306Z,78.90
2019-04-25T03:39:39.859Z,78.90
2019-04-25T03:40:14.602Z,79.00
2019-04-25T03:40:49.115Z,79.00
2019-04-25T03:41:24.566Z,79.10
2019-04-25T03:41:59.219Z,79.20
2019-04-25T03:42:33.942Z,79.20
2019-04-25T03:43:14.893Z,79.30
2019-04-25T03:43:51.788Z,79.10
2019-04-25T03:44:27.960Z,79.10
2019-04-25T03:45:09.332Z,79.10
2019-04-25T03:45:45.316Z,78.90
2019-04-25T03:46:20.017Z,78.80
2019-04-25T03:46:54.602Z,78.90
2019-04-25T03:47:29.113Z,79.00
2019-04-25T03:48:05.322Z,79.00
2019-04-25T03:48:40.491Z,79.10
2019-04-25T03:49:17.286Z,79.40
2019-04-25T03:49:55.034Z,79.50
2019-04-25T03:50:28.079Z,79.60
2019-04-25T03:51:04.599Z,79.60
2019-04-25T03:51:38.921Z,79.60
2019-04-25T03:52:14.198Z,79.70
2019-04-25T03:52:48.818Z,79.50
2019-04-25T03:53:23.973Z,79.50
2019-04-25T03:53:58.611Z,79.50
2019-04-25T03:54:33.478Z,79.50
2019-04-25T03:55:08.667Z,79.50
2019-04-25T03:55:44.356Z,79.30
2019-04-25T03:56:19.526Z,79.30
2019-04-25T03:56:56.142Z,79.40
2019-04-25T03:57:30.454Z,79.40
2019-04-25T03:58:08.768Z,79.30
2019-04-25T03:58:41.691Z,79.20
2019-04-25T03:59:16.652Z,79.20
2019-04-25T03:59:51.421Z,79.20
2019-04-25T04:00:26.062Z,79.30
2019-04-25T04:01:00.746Z,79.30
2019-04-25T04:01:35.461Z,79.50
2019-04-25T04:02:10.941Z,79.50
2019-04-25T04:02:45.621Z,79.60
2019-04-25T04:03:20.355Z,79.70
2019-04-25T04:03:55.146Z,80.40
2019-04-25T04:04:29.949Z,79.60
2019-04-25T04:05:07.029Z,79.50
2019-04-25T04:05:43.798Z,79.50
2019-04-25T04:06:30.173Z,79.50
2019-04-25T04:07:07.407Z,79.60
2019-04-25T04:07:41.155Z,79.70
2019-04-25T04:08:15.899Z,79.90
2019-04-25T04:08:50.574Z,80.40
2019-04-25T04:09:25.241Z,80.70
2019-04-25T04:09:59.960Z,80.60
2019-04-25T04:10:34.683Z,80.60
2019-04-25T04:11:10.125Z,80.50
2019-04-25T04:11:48.106Z,80.30
2019-04-25T04:12:24.175Z,80.00
2019-04-25T04:12:58.897Z,79.70
2019-04-25T04:13:34.258Z,79.70
2019-04-25T04:14:08.974Z,79.60
2019-04-25T04:14:43.869Z,79.40
2019-04-25T04:15:19.621Z,79.40
2019-04-25T04:15:54.532Z,79.40
2019-04-25T04:16:30.668Z,79.40
2019-04-25T04:17:10.705Z,79.50
2019-04-25T04:17:49.836Z,79.50
2019-04-25T04:18:27.055Z,79.40
2019-04-25T04:19:01.958Z,79.30
2019-04-25T04:19:38.286Z,79.20
2019-04-25T04:20:15.861Z,79.10
2019-04-25T04:20:54.795Z,79.10
2019-04-25T04:21:36.889Z,78.80
2019-04-25T04:22:18.956Z,78.80
2019-04-25T04:22:55.424Z,78.80
2019-04-25T04:23:33.116Z,78.90
2019-04-25T04:24:13.844Z,78.90
2019-04-25T04:24:50.925Z,78.80
2019-04-25T04:25:25.628Z,78.70
2019-04-25T04:26:00.217Z,78.60
2019-04-25T04:26:35.288Z,78.50
2019-04-25T04:27:11.805Z,78.60
2019-04-25T04:27:46.694Z,78.80
2019-04-25T04:28:21.520Z,78.80
2019-04-25T04:28:56.292Z,79.00
2019-04-25T04:29:30.895Z,79.10
2019-04-25T04:30:08.062Z,79.10
2019-04-25T04:30:43.570Z,79.00
2019-04-25T04:31:19.133Z,79.00
2019-04-25T04:31:54.415Z,79.00
2019-04-25T04:32:29.061Z,79.10
2019-04-25T04:33:03.933Z,78.90
2019-04-25T04:33:39.339Z,78.50
2019-04-25T04:34:14.672Z,78.50
2019-04-25T04:34:50.170Z,78.50
2019-04-25T04:35:24.823Z,78.30
2019-04-25T04:35:59.591Z,78.10
2019-04-25T04:36:34.220Z,78.10
2019-04-25T04:37:09.042Z,78.00
2019-04-25T04:37:43.675Z,78.00
2019-04-25T04:38:18.412Z,78.00
2019-04-25T04:38:54.350Z,78.10
2019-04-25T04:39:29.052Z,78.40
2019-04-25T04:40:04.947Z,78.50
2019-04-25T04:40:39.522Z,78.60
2019-04-25T04:41:15.006Z,78.70
2019-04-25T04:41:50.203Z,78.80
2019-04-25T04:42:24.778Z,78.80
2019-04-25T04:42:59.288Z,78.80
2019-04-25T04:43:34.267Z,78.80
2019-04-25T04:44:09.948Z,78.70
2019-04-25T04:44:44.529Z,78.70
2019-04-25T04:45:19.034Z,78.50
2019-04-25T04:45:54.136Z,78.50
2019-04-25T04:46:28.740Z,78.40
2019-04-25T04:47:04.048Z,78.50
2019-04-25T04:47:38.743Z,78.50
2019-04-25T04:48:14.506Z,78.60
2019-04-25T04:48:49.694Z,78.70
2019-04-25T04:49:24.260Z,78.70
2019-04-25T04:49:59.029Z,78.70
2019-04-25T04:50:33.746Z,79.40
2019-04-25T04:51:09.033Z,78.80
2019-04-25T04:51:44.423Z,78.90
2019-04-25T04:52:18.960Z,78.80
2019-04-25T04:52:54.004Z,78.80
2019-04-25T04:53:28.700Z,78.80
2019-04-25T04:54:03.495Z,78.80
2019-04-25T04:54:38.067Z,78.80
2019-04-25T04:55:14.636Z,78.80
2019-04-25T04:55:48.778Z,78.70
2019-04-25T04:56:23.912Z,78.50
2019-04-25T04:56:59.506Z,78.50
2019-04-25T04:57:36.162Z,78.40
2019-04-25T04:58:11.125Z,78.40
2019-04-25T04:58:45.782Z,78.40
2019-04-25T04:59:20.393Z,78.50
2019-04-25T04:59:54.962Z,78.50
2019-04-25T05:00:29.623Z,78.40
2019-04-25T05:01:04.378Z,78.40
2019-04-25T05:01:40.603Z,78.30
2019-04-25T05:02:33.224Z,78.10
2019-04-25T05:03:18.847Z,78.10
2019-04-25T05:03:57.623Z,77.80
2019-04-25T05:04:49.888Z,77.90
2019-04-25T05:05:31.578Z,77.80
2019-04-25T05:06:14.872Z,77.90
2019-04-25T05:07:07.449Z,78.10
2019-04-25T05:07:43.969Z,78.10
2019-04-25T05:08:24.756Z,78.20
2019-04-25T05:09:01.202Z,78.80
2019-04-25T05:09:35.730Z,78.20
2019-04-25T05:10:11.349Z,78.30
2019-04-25T05:10:46.031Z,78.10
2019-04-25T05:11:20.644Z,78.10
2019-04-25T05:11:55.789Z,77.60
2019-04-25T05:12:30.373Z,77.60
2019-04-25T05:13:05.025Z,77.80
2019-04-25T05:13:39.622Z,77.70
2019-04-25T05:14:15.347Z,77.80
2019-04-25T05:14:50.900Z,77.80
2019-04-25T05:15:25.485Z,77.80
2019-04-25T05:16:00.014Z,77.70
2019-04-25T05:16:34.814Z,77.70
2019-04-25T05:17:09.382Z,77.60
2019-04-25T05:17:44.081Z,77.40
2019-04-25T05:18:31.532Z,77.40
2019-04-25T05:18:55.334Z,77.50
2019-04-25T05:19:29.953Z,77.30
2019-04-25T05:20:07.523Z,77.20
2019-04-25T05:20:42.140Z,76.80
2019-04-25T05:21:17.151Z,76.50
2019-04-25T05:21:51.700Z,76.20
2019-04-25T05:22:26.211Z,75.80
2019-04-25T05:23:00.729Z,75.20
2019-04-25T05:23:35.310Z,74.50
2019-04-25T05:24:09.892Z,74.20
2019-04-25T05:24:44.394Z,74.20
2019-04-25T05:25:19.142Z,74.00
2019-04-25T05:25:54.190Z,73.90
2019-04-25T05:26:30.204Z,73.90
2019-04-25T05:27:04.799Z,73.90
2019-04-25T05:27:56.787Z,73.70
2019-04-25T05:28:16.254Z,73.70
2019-04-25T05:28:51.779Z,73.60
2019-04-25T05:29:26.667Z,73.70
2019-04-25T05:30:01.386Z,73.60
2019-04-25T05:30:46.222Z,73.50
2019-04-25T05:31:24.010Z,74.20
2019-04-25T05:31:58.919Z,73.50
2019-04-25T05:32:34.262Z,73.40
2019-04-25T05:33:08.792Z,73.30
2019-04-25T05:33:43.626Z,73.20
2019-04-25T05:34:18.313Z,73.30
2019-04-25T05:34:53.316Z,73.30
2019-04-25T05:35:27.899Z,73.10
2019-04-25T05:36:03.745Z,73.10
2019-04-25T05:36:38.609Z,72.90
2019-04-25T05:37:14.388Z,72.80
2019-04-25T05:37:49.357Z,72.80
2019-04-25T05:38:24.996Z,72.70
2019-04-25T05:38:59.710Z,72.80
2019-04-25T05:39:34.235Z,72.70
2019-04-25T05:40:08.998Z,72.80
2019-04-25T05:40:51.250Z,72.80
2019-04-25T05:41:27.391Z,72.80
2019-04-25T05:42:12.242Z,72.70
2019-04-25T05:43:00.411Z,72.90
2019-04-25T05:43:34.913Z,72.80
2019-04-25T05:44:09.507Z,73.00
2019-04-25T05:44:44.085Z,72.90
2019-04-25T05:45:21.179Z,72.80
2019-04-25T05:45:55.800Z,72.70
2019-04-25T05:46:30.318Z,72.60
2019-04-25T05:47:04.902Z,72.50
2019-04-25T05:47:39.414Z,72.50
2019-04-25T05:48:15.239Z,72.30
2019-04-25T05:48:50.578Z,72.00
2019-04-25T05:49:26.098Z,72.00
2019-04-25T05:50:00.906Z,71.90
2019-04-25T05:50:35.422Z,71.90
2019-04-25T05:51:09.929Z,71.80
2019-04-25T05:51:44.443Z,71.90
2019-04-25T05:52:19.827Z,71.70
2019-04-25T05:52:54.441Z,71.70
2019-04-25T05:53:28.949Z,71.60
2019-04-25T05:54:04.178Z,71.40
2019-04-25T05:54:38.753Z,71.20
2019-04-25T05:55:15.883Z,71.20
2019-04-25T05:55:49.466Z,71.10
2019-04-25T05:56:26.778Z,70.90
2019-04-25T05:57:00.355Z,70.80
2019-04-25T05:57:45.488Z,70.70
2019-04-25T05:58:11.161Z,70.60
2019-04-25T05:58:45.742Z,70.70
2019-04-25T05:59:20.246Z,70.80
2019-04-25T05:59:54.756Z,70.70
2019-04-25T06:00:29.264Z,70.50
2019-04-25T06:01:03.771Z,70.10
2019-04-25T06:01:38.343Z,69.90
2019-04-25T06:02:13.957Z,69.50
2019-04-25T06:02:48.629Z,69.40
2019-04-25T06:03:24.819Z,69.40
2019-04-25T06:03:59.339Z,69.40
2019-04-25T06:04:33.844Z,69.20
2019-04-25T06:05:08.556Z,69.20
2019-04-25T06:05:43.458Z,69.40
2019-04-25T06:06:19.035Z,69.40
2019-04-25T06:06:55.244Z,69.40
2019-04-25T06:07:29.844Z,69.40
2019-04-25T06:08:04.551Z,69.30
2019-04-25T06:08:40.737Z,69.20
2019-04-25T06:09:28.750Z,69.00
2019-04-25T06:10:23.577Z,68.70
2019-04-25T06:11:00.113Z,68.10
2019-04-25T06:11:39.215Z,68.20
2019-04-25T06:12:15.372Z,68.00
2019-04-25T06:12:57.039Z,68.60
2019-04-25T06:13:33.410Z,67.80
2019-04-25T06:14:09.705Z,67.50
2019-04-25T06:14:44.207Z,67.30
2019-04-25T06:15:20.379Z,67.10
2019-04-25T06:15:56.525Z,66.60
2019-04-25T06:16:33.325Z,66.20
2019-04-25T06:17:09.631Z,66.00
2019-04-25T06:17:45.925Z,65.90
2019-04-25T06:18:28.274Z,65.80
2019-04-25T06:19:16.390Z,65.30
2019-04-25T06:19:51.119Z,65.00
2019-04-25T06:20:27.606Z,65.10
2019-04-25T06:21:03.113Z,64.90
2019-04-25T06:21:37.743Z,64.20
2019-04-25T06:22:15.178Z,63.70
2019-04-25T06:22:57.381Z,63.40
2019-04-25T06:23:46.030Z,63.30
2019-04-25T06:24:24.350Z,63.00
2019-04-25T06:25:00.240Z,62.80
2019-04-25T06:25:39.649Z,62.60
2019-04-25T06:26:22.911Z,62.20
2019-04-25T06:26:49.678Z,62.10
2019-04-25T06:27:26.918Z,61.80
2019-04-25T06:28:03.765Z,61.80
2019-04-25T06:28:49.416Z,61.90
2019-04-25T06:29:14.620Z,61.80
2019-04-25T06:29:58.079Z,61.70
2019-04-25T06:30:28.244Z,61.60
2019-04-25T06:31:04.442Z,61.50
2019-04-25T06:31:38.971Z,61.20
2019-04-25T06:32:14.258Z,61.20
2019-04-25T06:32:48.948Z,61.00
2019-04-25T06:33:24.626Z,60.70
2019-04-25T06:33:59.678Z,60.10
2019-04-25T06:34:36.312Z,60.20
2019-04-25T06:35:10.628Z,60.10
2019-04-25T06:35:45.206Z,60.00
2019-04-25T06:36:20.977Z,60.00
2019-04-25T06:36:55.558Z,60.00
2019-04-25T06:37:30.083Z,59.80
2019-04-25T06:38:04.642Z,59.70
2019-04-25T06:38:39.231Z,59.70
2019-04-25T06:39:14.190Z,59.50
2019-04-25T06:39:48.822Z,59.50
2019-04-25T06:40:24.203Z,59.20
2019-04-25T06:40:59.651Z,59.00
2019-04-25T06:41:35.294Z,58.80
2019-04-25T06:42:09.935Z,58.70
2019-04-25T06:42:46.617Z,58.50
2019-04-25T06:43:21.813Z,58.10
2019-04-25T06:43:58.661Z,57.90
2019-04-25T06:44:37.823Z,57.50
2019-04-25T06:45:15.836Z,57.60
2019-04-25T06:46:08.395Z,57.70
2019-04-25T06:46:44.806Z,57.80
2019-04-25T06:47:34.121Z,57.60
2019-04-25T06:48:10.377Z,57.50
2019-04-25T06:49:04.601Z,57.60
2019-04-25T06:49:40.704Z,57.70
2019-04-25T06:50:15.799Z,57.60
2019-04-25T06:50:50.479Z,57.20
2019-04-25T06:51:27.299Z,57.10
2019-04-25T06:52:04.145Z,57.10
2019-04-25T06:52:38.785Z,57.10
2019-04-25T06:53:13.660Z,56.20
2019-04-25T06:53:48.257Z,55.90
2019-04-25T06:54:25.277Z,55.50
2019-04-25T06:54:59.016Z,55.40
2019-04-25T06:55:34.308Z,55.10
2019-04-25T06:56:08.948Z,55.00
2019-04-25T06:56:43.562Z,54.60
2019-04-25T06:57:18.120Z,54.60
2019-04-25T06:57:54.006Z,54.20
2019-04-25T06:58:28.885Z,54.20
2019-04-25T06:59:03.549Z,54.40
2019-04-25T06:59:41.301Z,54.20
2019-04-25T07:00:16.969Z,54.10
2019-04-25T07:00:58.695Z,54.00
2019-04-25T07:01:28.633Z,53.60
2019-04-25T07:02:04.259Z,53.50
2019-04-25T07:02:38.895Z,53.50
2019-04-25T07:03:13.975Z,53.20
2019-04-25T07:03:49.682Z,53.00
2019-04-25T07:04:26.271Z,53.00
2019-04-25T07:05:00.397Z,52.80
2019-04-25T07:05:40.267Z,52.80
2019-04-25T07:06:12.944Z,52.80
2019-04-25T07:06:49.469Z,52.60
2019-04-25T07:07:25.633Z,52.40
2019-04-25T07:08:00.290Z,52.30
2019-04-25T07:08:35.365Z,52.30
2019-04-25T07:09:11.310Z,52.30
2019-04-25T07:09:45.851Z,52.50
2019-04-25T07:10:20.407Z,52.30
2019-04-25T07:10:55.329Z,52.40
2019-04-25T07:11:30.473Z,52.50
2019-04-25T07:12:05.089Z,52.70
2019-04-25T07:12:39.664Z,52.70
2019-04-25T07:13:14.513Z,52.60
2019-04-25T07:13:49.016Z,53.40
2019-04-25T07:14:25.458Z,52.90
2019-04-25T07:14:59.903Z,53.10
2019-04-25T07:15:35.296Z,53.20
2019-04-25T07:16:09.855Z,53.10
2019-04-25T07:16:44.422Z,52.70
2019-04-25T07:17:18.932Z,52.50
2019-04-25T07:17:53.998Z,52.30
2019-04-25T07:18:32.352Z,52.20
2019-04-25T07:19:05.459Z,52.40
2019-04-25T07:19:40.043Z,52.20
2019-04-25T07:20:15.168Z,52.10
2019-04-25T07:20:49.746Z,52.20
2019-04-25T07:21:25.152Z,52.00
2019-04-25T07:22:00.407Z,52.10
2019-04-25T07:22:36.185Z,52.20
2019-04-25T07:23:10.808Z,52.30
2019-04-25T07:23:46.225Z,52.20
2019-04-25T07:24:20.971Z,52.10
2019-04-25T07:24:55.547Z,52.00
2019-04-25T07:25:31.762Z,51.90
2019-04-25T07:26:08.162Z,51.90
2019-04-25T07:26:44.349Z,51.90
2019-04-25T07:27:24.759Z,52.00
2019-04-25T07:28:24.247Z,52.10
2019-04-25T07:28:55.489Z,52.20
2019-04-25T07:29:34.866Z,52.90
2019-04-25T07:30:45.461Z,52.50
2019-04-25T07:31:07.785Z,52.40
2019-04-25T07:31:46.710Z,52.20
2019-04-25T07:32:32.532Z,51.90
2019-04-25T07:33:13.801Z,51.70
2019-04-25T07:33:50.088Z,51.90
2019-04-25T07:34:27.379Z,51.80
2019-04-25T07:35:03.479Z,51.70
2019-04-25T07:35:38.199Z,51.70
2019-04-25T07:36:13.900Z,52.10
2019-04-25T07:36:48.896Z,52.30
2019-04-25T07:37:24.243Z,52.40
2019-04-25T07:37:58.870Z,52.50
2019-04-25T07:38:34.023Z,52.40
2019-04-25T07:39:10.609Z,52.30
2019-04-25T07:39:45.533Z,52.30
2019-04-25T07:40:20.585Z,52.60
2019-04-25T07:40:55.088Z,52.80
2019-04-25T07:41:29.593Z,53.00
2019-04-25T07:42:04.344Z,52.90
2019-04-25T07:42:39.241Z,53.20
2019-04-25T07:43:13.817Z,53.40
2019-04-25T07:43:48.321Z,53.20
2019-04-25T07:44:35.277Z,53.20
2019-04-25T07:44:59.177Z,53.30
2019-04-25T07:45:35.091Z,53.20
2019-04-25T07:46:10.673Z,53.10
2019-04-25T07:46:45.260Z,53.10